createdAt,value
2023-03-17T00:04:59.258Z,5.28
2023-03-17T00:10:27.032Z,6.03
2023-03-17T00:15:54.954Z,6.55
2023-03-17T00:21:22.621Z,9.10
2023-03-17T00:26:43.659Z,6.07
2023-03-17T00:32:05.100Z,5.55
2023-03-17T00:37:25.843Z,5.80
2023-03-17T00:42:46.518Z,6.13
2023-03-17T00:48:21.831Z,5.03
2023-03-17T00:53:43.218Z,5.55
2023-03-17T00:59:05.047Z,4.60
2023-03-17T01:04:26.108Z,6.80
2023-03-17T01:09:46.693Z,4.50
2023-03-17T01:15:07.841Z,5.20
2023-03-17T01:20:32.066Z,4.13
2023-03-17T01:25:52.882Z,4.03
2023-03-17T01:31:13.655Z,3.03
2023-03-17T01:36:34.477Z,5.00
2023-03-17T01:42:00.400Z,3.88
2023-03-17T01:47:24.579Z,5.82
2023-03-17T01:52:45.783Z,5.90
2023-03-17T01:58:07.411Z,4.30
2023-03-17T02:03:29.881Z,4.43
2023-03-17T02:08:50.919Z,4.72
2023-03-17T02:14:12.365Z,4.32
2023-03-17T02:19:35.322Z,6.22
2023-03-17T02:24:59.510Z,7.65
2023-03-17T02:30:24.246Z,7.78
2023-03-17T02:35:44.978Z,9.68
2023-03-17T02:41:07.268Z,5.82
2023-03-17T02:46:28.640Z,6.72
2023-03-17T02:51:53.436Z,7.93
2023-03-17T02:57:14.187Z,9.13
2023-03-17T03:02:34.810Z,5.07
2023-03-17T03:07:55.681Z,5.20
2023-03-17T03:13:16.854Z,5.78
2023-03-17T03:18:37.860Z,3.75
2023-03-17T03:23:58.629Z,7.40
2023-03-17T03:29:19.689Z,6.00
2023-03-17T03:34:40.585Z,5.60
2023-03-17T03:40:01.479Z,9.27
2023-03-17T03:45:22.407Z,6.60
2023-03-17T03:50:43.265Z,9.57
2023-03-17T03:56:04.393Z,7.85
2023-03-17T04:01:25.419Z,4.22
2023-03-17T04:06:46.402Z,6.13
2023-03-17T04:12:08.326Z,3.95
2023-03-17T04:17:29.316Z,7.68
2023-03-17T04:22:50.043Z,11.52
2023-03-17T04:28:12.248Z,12.15
2023-03-17T04:33:33.581Z,8.70
2023-03-17T04:38:54.355Z,11.13
2023-03-17T04:44:15.081Z,11.45
2023-03-17T04:49:35.608Z,10.57
2023-03-17T04:54:56.548Z,8.48
2023-03-17T05:00:18.237Z,7.13
2023-03-17T05:05:38.914Z,19.23
2023-03-17T05:10:59.433Z,18.55
2023-03-17T05:16:20.227Z,19.83
2023-03-17T05:21:41.517Z,14.75
2023-03-17T05:27:02.182Z,6.68
2023-03-17T05:32:23.207Z,5.22
2023-03-17T05:37:44.753Z,5.97
2023-03-17T05:43:06.236Z,10.82
2023-03-17T05:48:27.082Z,6.20
2023-03-17T05:53:47.853Z,7.68
2023-03-17T05:59:09.489Z,8.23
2023-03-17T06:04:30.202Z,9.02
2023-03-17T06:09:50.793Z,21.60
2023-03-17T06:15:11.564Z,20.27
2023-03-17T06:20:33.458Z,12.95
2023-03-17T06:25:54.431Z,16.13
2023-03-17T06:31:15.633Z,9.77
2023-03-17T06:36:38.613Z,9.32
2023-03-17T06:41:59.145Z,9.05
2023-03-17T06:47:20.199Z,4.78
2023-03-17T06:52:41.348Z,4.13
2023-03-17T06:58:03.139Z,2.47
2023-03-17T07:03:25.561Z,3.60
2023-03-17T07:08:47.601Z,5.38
2023-03-17T07:14:09.065Z,8.15
2023-03-17T07:19:31.318Z,2.90
2023-03-17T07:24:52.674Z,4.43
2023-03-17T07:30:15.020Z,3.92
2023-03-17T07:35:36.308Z,4.00
2023-03-17T07:40:56.866Z,2.13
2023-03-17T07:46:17.663Z,3.97
2023-03-17T07:51:38.837Z,3.55
2023-03-17T07:56:59.538Z,6.63
2023-03-17T08:02:21.158Z,3.05
2023-03-17T08:07:41.905Z,3.70
2023-03-17T08:13:02.646Z,4.00
2023-03-17T08:18:23.736Z,3.85
2023-03-17T08:23:44.727Z,3.95
2023-03-17T08:29:05.562Z,4.20
2023-03-17T08:34:26.426Z,5.05
2023-03-17T08:39:47.274Z,7.43
2023-03-17T08:45:09.980Z,4.32
2023-03-17T08:50:31.345Z,5.70
2023-03-17T08:55:55.513Z,3.30
2023-03-17T09:01:17.044Z,3.35
2023-03-17T09:06:39.739Z,5.68
2023-03-17T09:12:06.321Z,6.13
2023-03-17T09:17:27.660Z,4.38
2023-03-17T09:22:49.187Z,4.00
2023-03-17T09:28:12.147Z,4.35
2023-03-17T09:33:33.284Z,5.65
2023-03-17T09:38:54.149Z,4.75
2023-03-17T09:44:28.803Z,4.22
2023-03-17T09:49:58.624Z,3.33
2023-03-17T09:55:28.206Z,6.70
2023-03-17T10:00:49.263Z,5.28
2023-03-17T10:06:39.262Z,5.15
2023-03-17T10:12:11.159Z,7.75
2023-03-17T10:17:36.743Z,5.10
2023-03-17T10:23:04.815Z,4.97
2023-03-17T10:28:35.773Z,4.65
2023-03-17T10:33:59.072Z,4.97
2023-03-17T10:39:22.389Z,3.80
2023-03-17T10:44:52.479Z,5.65
2023-03-17T10:50:16.850Z,7.90
2023-03-17T10:55:44.735Z,4.53
2023-03-17T11:01:15.315Z,4.18
2023-03-17T11:06:43.911Z,8.30
2023-03-17T11:12:32.842Z,4.45
2023-03-17T11:18:03.497Z,6.30
2023-03-17T11:23:50.290Z,5.63
2023-03-17T11:29:33.218Z,4.85
2023-03-17T11:35:21.976Z,7.28
2023-03-17T11:41:10.888Z,4.40
2023-03-17T11:46:46.659Z,7.07
2023-03-17T11:52:29.352Z,4.80
2023-03-17T11:58:01.481Z,6.53
2023-03-17T12:03:40.272Z,4.72
2023-03-17T12:09:30.863Z,3.70
2023-03-17T12:14:54.096Z,5.25
2023-03-17T12:20:28.021Z,7.50
2023-03-17T12:25:57.721Z,7.47
2023-03-17T12:31:25.224Z,6.18
2023-03-17T12:36:46.118Z,5.03
2023-03-17T12:42:22.102Z,8.05
2023-03-17T12:47:50.479Z,5.65
2023-03-17T12:53:33.703Z,7.03
2023-03-17T12:59:06.828Z,6.40
2023-03-17T13:04:32.967Z,6.20
2023-03-17T13:09:53.598Z,5.55
2023-03-17T13:15:48.924Z,7.53
2023-03-17T13:21:13.876Z,5.97
2023-03-17T13:26:55.420Z,5.85
2023-03-17T13:32:17.085Z,9.13
2023-03-17T13:38:08.729Z,6.88
2023-03-17T13:43:56.924Z,5.68
2023-03-17T13:49:24.225Z,13.45
2023-03-17T13:54:59.692Z,6.10
2023-03-17T14:00:24.487Z,5.78
2023-03-17T14:05:51.636Z,6.65
2023-03-17T14:11:32.357Z,7.10
2023-03-17T14:17:00.534Z,5.22
2023-03-17T14:22:24.661Z,9.25
2023-03-17T14:27:51.016Z,8.25
2023-03-17T14:33:12.034Z,5.70
2023-03-17T14:38:35.379Z,7.20
2023-03-17T14:44:00.687Z,8.05
2023-03-17T14:49:23.185Z,6.50
2023-03-17T14:54:44.476Z,7.47
2023-03-17T15:00:46.868Z,5.82
2023-03-17T15:06:13.389Z,6.75
2023-03-17T15:11:41.646Z,6.55
2023-03-17T15:17:05.233Z,7.80
2023-03-17T15:22:30.760Z,6.18
2023-03-17T15:27:52.438Z,9.07
2023-03-17T15:33:28.783Z,5.97
2023-03-17T15:38:49.545Z,7.57
2023-03-17T15:44:10.314Z,6.88
2023-03-17T15:49:31.106Z,5.93
2023-03-17T15:54:57.141Z,6.65
2023-03-17T16:00:22.885Z,5.32
2023-03-17T16:05:43.636Z,9.68
2023-03-17T16:11:04.201Z,7.93
2023-03-17T16:16:35.022Z,5.70
2023-03-17T16:21:56.389Z,6.85
2023-03-17T16:27:17.473Z,7.72
2023-03-17T16:32:38.191Z,5.15
2023-03-17T16:37:58.882Z,6.30
2023-03-17T16:43:25.139Z,13.07
2023-03-17T16:48:48.346Z,5.13
2023-03-17T16:54:10.376Z,7.28
2023-03-17T16:59:31.710Z,6.32
2023-03-17T17:04:52.636Z,5.97
2023-03-17T17:10:15.557Z,5.93
2023-03-17T17:15:37.689Z,8.43
2023-03-17T17:20:58.420Z,15.90
2023-03-17T17:26:18.978Z,18.17
2023-03-17T17:31:39.978Z,10.35
2023-03-17T17:37:00.971Z,9.35
2023-03-17T17:42:21.728Z,10.10
2023-03-17T17:47:42.819Z,8.88
2023-03-17T17:53:05.719Z,8.93
2023-03-17T17:58:26.727Z,9.32
2023-03-17T18:03:47.696Z,10.30
2023-03-17T18:09:09.658Z,10.57
2023-03-17T18:14:31.092Z,8.93
2023-03-17T18:19:55.643Z,7.88
2023-03-17T18:25:17.452Z,14.45
2023-03-17T18:30:38.545Z,12.35
2023-03-17T18:36:00.209Z,11.57
2023-03-17T18:41:20.988Z,12.30
2023-03-17T18:46:41.785Z,7.63
2023-03-17T18:52:02.515Z,10.52
2023-03-17T18:57:23.273Z,13.90
2023-03-17T19:02:44.111Z,9.60
2023-03-17T19:08:05.662Z,10.00
2023-03-17T19:13:27.344Z,9.98
2023-03-17T19:18:47.887Z,12.07
2023-03-17T19:24:10.705Z,13.07
2023-03-17T19:29:33.926Z,8.30
2023-03-17T19:34:55.001Z,10.15
2023-03-17T19:40:16.182Z,9.00
2023-03-17T19:45:37.074Z,7.78
2023-03-17T19:50:57.817Z,6.80
2023-03-17T19:56:19.052Z,7.55
2023-03-17T20:01:40.233Z,9.70
2023-03-17T20:07:01.124Z,6.97
2023-03-17T20:12:22.029Z,7.35
2023-03-17T20:17:43.363Z,7.47
2023-03-17T20:23:04.052Z,16.80
2023-03-17T20:28:25.301Z,9.82
2023-03-17T20:33:46.156Z,11.00
2023-03-17T20:39:06.913Z,8.82
2023-03-17T20:44:27.721Z,9.70
2023-03-17T20:49:48.838Z,12.02
2023-03-17T20:55:14.046Z,6.38
2023-03-17T21:00:35.557Z,4.63
2023-03-17T21:05:56.420Z,5.95
2023-03-17T21:11:20.331Z,6.43
2023-03-17T21:16:45.718Z,10.30
2023-03-17T21:22:06.892Z,10.75
2023-03-17T21:27:27.708Z,13.50
2023-03-17T21:32:48.533Z,14.70
2023-03-17T21:38:09.417Z,16.58
2023-03-17T21:43:30.524Z,36.10
2023-03-17T21:48:52.222Z,14.02
2023-03-17T21:54:14.273Z,24.20
2023-03-17T21:59:35.811Z,24.02
2023-03-17T22:04:56.901Z,13.10
2023-03-17T22:10:18.109Z,14.95
2023-03-17T22:15:38.744Z,16.95
2023-03-17T22:20:59.893Z,16.02
2023-03-17T22:26:21.952Z,16.45
2023-03-17T22:31:43.277Z,17.77
2023-03-17T22:37:04.614Z,8.40
2023-03-17T22:42:25.588Z,8.25
2023-03-17T22:47:46.569Z,11.38
2023-03-17T22:53:07.850Z,12.18
2023-03-17T22:58:29.073Z,11.50
2023-03-17T23:03:50.615Z,12.88
2023-03-17T23:09:11.320Z,12.20
2023-03-17T23:14:32.077Z,10.73
2023-03-17T23:19:53.029Z,10.82
2023-03-17T23:25:13.765Z,14.27
2023-03-17T23:30:35.797Z,19.75
2023-03-17T23:35:57.256Z,13.70
2023-03-17T23:41:18.660Z,9.95
2023-03-17T23:46:39.374Z,9.90
2023-03-17T23:52:00.050Z,6.55
2023-03-17T23:57:21.025Z,8.13
